createdAt,value
2024-01-28T00:02:45.941Z,12.61
2024-01-28T00:04:48.272Z,12.62
2024-01-28T00:06:52.571Z,12.62
2024-01-28T00:08:56.588Z,12.63
2024-01-28T00:10:58.132Z,12.63
2024-01-28T00:13:02.285Z,12.65
2024-01-28T00:15:04.420Z,12.65
2024-01-28T00:17:11.018Z,12.65
2024-01-28T00:19:14.038Z,12.63
2024-01-28T00:21:16.817Z,12.63
2024-01-28T00:23:29.588Z,12.63
2024-01-28T00:25:36.103Z,12.62
2024-01-28T00:27:47.830Z,12.64
2024-01-28T00:29:52.130Z,12.63
2024-01-28T00:31:57.168Z,12.62
2024-01-28T00:34:13.961Z,12.64
2024-01-28T00:36:17.813Z,12.63
2024-01-28T00:38:21.906Z,12.62
2024-01-28T00:40:23.383Z,12.61
2024-01-28T00:42:28.004Z,12.60
2024-01-28T00:44:29.536Z,12.59
2024-01-28T00:46:34.238Z,12.58
2024-01-28T00:48:35.842Z,12.58
2024-01-28T00:50:38.272Z,12.56
2024-01-28T00:52:41.626Z,12.55
2024-01-28T00:54:52.731Z,12.53
2024-01-28T00:57:08.427Z,12.51
2024-01-28T00:59:34.016Z,12.50
2024-01-28T01:01:45.662Z,12.50
2024-01-28T01:03:54.633Z,12.46
2024-01-28T01:06:00.007Z,12.44
2024-01-28T01:08:05.312Z,12.45
2024-01-28T01:10:30.603Z,12.43
2024-01-28T01:12:32.193Z,12.42
2024-01-28T01:14:36.747Z,12.41
2024-01-28T01:16:38.319Z,12.41
2024-01-28T01:18:40.024Z,12.42
2024-01-28T01:20:47.167Z,12.42
2024-01-28T01:22:48.684Z,12.41
2024-01-28T01:24:50.310Z,12.41
2024-01-28T01:26:52.574Z,12.39
2024-01-28T01:28:54.172Z,12.40
2024-01-28T01:30:58.192Z,12.39
2024-01-28T01:33:02.259Z,12.38
2024-01-28T01:35:04.477Z,12.38
2024-01-28T01:37:08.515Z,12.38
2024-01-28T01:39:11.319Z,12.35
2024-01-28T01:41:19.217Z,12.34
2024-01-28T01:43:33.548Z,12.36
2024-01-28T01:45:45.536Z,12.34
2024-01-28T01:47:50.624Z,12.33
2024-01-28T01:49:58.199Z,12.33
2024-01-28T01:52:03.673Z,12.32
2024-01-28T01:54:05.939Z,12.33
2024-01-28T01:56:10.969Z,12.33
2024-01-28T01:58:12.929Z,12.31
2024-01-28T02:00:17.972Z,12.29
2024-01-28T02:02:20.046Z,12.26
2024-01-28T02:04:22.449Z,12.24
2024-01-28T02:06:24.176Z,12.23
2024-01-28T02:08:28.002Z,12.22
2024-01-28T02:10:30.878Z,12.22
2024-01-28T02:12:40.357Z,12.23
2024-01-28T02:14:43.761Z,12.22
2024-01-28T02:16:49.369Z,12.22
2024-01-28T02:18:58.195Z,12.21
2024-01-28T02:21:16.384Z,12.21
2024-01-28T02:23:29.440Z,12.19
2024-01-28T02:25:34.312Z,12.21
2024-01-28T02:27:43.228Z,12.21
2024-01-28T02:29:52.233Z,12.19
2024-01-28T02:31:56.786Z,12.19
2024-01-28T02:33:59.622Z,12.20
2024-01-28T02:36:01.316Z,12.18
2024-01-28T02:38:05.903Z,12.18
2024-01-28T02:40:08.244Z,12.19
2024-01-28T02:42:14.919Z,12.21
2024-01-28T02:44:16.580Z,12.20
2024-01-28T02:46:18.913Z,12.19
2024-01-28T02:48:22.523Z,12.17
2024-01-28T02:50:24.105Z,12.17
2024-01-28T02:52:27.805Z,12.16
2024-01-28T02:54:30.668Z,12.15
2024-01-28T02:56:34.710Z,12.15
2024-01-28T02:58:38.697Z,12.14
2024-01-28T03:00:40.404Z,12.12
2024-01-28T03:02:45.025Z,12.12
2024-01-28T03:04:47.078Z,12.11
2024-01-28T03:06:48.733Z,12.13
2024-01-28T03:08:52.973Z,12.09
2024-01-28T03:10:54.486Z,12.09
2024-01-28T03:12:59.107Z,12.10
2024-01-28T03:15:03.989Z,12.09
2024-01-28T03:17:05.545Z,12.06
2024-01-28T03:19:07.425Z,12.05
2024-01-28T03:21:13.564Z,12.04
2024-01-28T03:23:17.505Z,12.04
2024-01-28T03:25:19.034Z,12.04
2024-01-28T03:27:20.642Z,12.03
2024-01-28T03:29:22.299Z,12.03
2024-01-28T03:31:24.140Z,12.02
2024-01-28T03:33:25.918Z,12.02
2024-01-28T03:35:27.558Z,12.00
2024-01-28T03:37:29.188Z,12.00
2024-01-28T03:39:30.790Z,12.00
2024-01-28T03:41:34.833Z,11.97
2024-01-28T03:43:36.344Z,11.97
2024-01-28T03:45:38.140Z,11.97
2024-01-28T03:47:44.625Z,11.98
2024-01-28T03:49:47.503Z,11.98
2024-01-28T03:51:49.187Z,11.98
2024-01-28T03:53:51.226Z,11.98
2024-01-28T03:55:52.819Z,11.98
2024-01-28T03:57:57.038Z,11.99
2024-01-28T04:00:00.881Z,11.98
2024-01-28T04:02:02.645Z,11.97
2024-01-28T04:04:06.594Z,11.96
2024-01-28T04:06:08.449Z,11.96
2024-01-28T04:08:13.231Z,11.96
2024-01-28T04:10:18.037Z,11.97
2024-01-28T04:12:19.555Z,11.95
2024-01-28T04:14:22.310Z,11.95
2024-01-28T04:16:24.217Z,11.94
2024-01-28T04:18:29.115Z,11.91
2024-01-28T04:20:32.712Z,11.91
2024-01-28T04:22:34.322Z,11.92
2024-01-28T04:24:35.933Z,11.94
2024-01-28T04:26:39.707Z,11.94
2024-01-28T04:28:44.046Z,11.95
2024-01-28T04:30:47.690Z,11.95
2024-01-28T04:32:49.302Z,11.94
2024-01-28T04:34:53.306Z,11.93
2024-01-28T04:36:57.636Z,11.92
2024-01-28T04:39:01.507Z,11.92
2024-01-28T04:41:03.503Z,11.91
2024-01-28T04:43:06.485Z,11.89
2024-01-28T04:45:10.172Z,11.88
2024-01-28T04:47:14.186Z,11.90
2024-01-28T04:49:18.135Z,11.89
2024-01-28T04:51:19.841Z,11.89
2024-01-28T04:53:21.416Z,11.89
2024-01-28T04:55:25.590Z,11.89
2024-01-28T04:57:27.450Z,11.88
2024-01-28T04:59:34.243Z,11.87
2024-01-28T05:01:35.896Z,11.87
2024-01-28T05:03:39.807Z,11.86
2024-01-28T05:05:45.741Z,11.85
2024-01-28T05:07:49.749Z,11.84
2024-01-28T05:09:51.323Z,11.84
2024-01-28T05:11:52.930Z,11.83
2024-01-28T05:13:54.526Z,11.83
2024-01-28T05:15:58.812Z,11.82
2024-01-28T05:18:00.988Z,11.81
2024-01-28T05:20:05.243Z,11.83
2024-01-28T05:22:06.773Z,11.82
2024-01-28T05:24:08.407Z,11.81
2024-01-28T05:26:11.291Z,11.82
2024-01-28T05:28:15.326Z,11.80
2024-01-28T05:30:24.326Z,11.80
2024-01-28T05:32:29.744Z,11.80
2024-01-28T05:34:31.629Z,11.79
2024-01-28T05:36:33.430Z,11.79
2024-01-28T05:38:37.622Z,11.78
2024-01-28T05:40:42.424Z,11.78
2024-01-28T05:42:44.169Z,11.78
2024-01-28T05:44:45.719Z,11.79
2024-01-28T05:46:51.085Z,11.80
2024-01-28T05:48:54.565Z,11.80
2024-01-28T05:50:56.433Z,11.79
2024-01-28T05:53:00.273Z,11.78
2024-01-28T05:55:01.914Z,11.78
2024-01-28T05:57:04.214Z,11.78
2024-01-28T05:59:08.379Z,11.75
2024-01-28T06:01:10.666Z,11.74
2024-01-28T06:03:15.229Z,11.76
2024-01-28T06:05:18.955Z,11.77
2024-01-28T06:07:20.581Z,11.78
2024-01-28T06:09:24.574Z,11.78
2024-01-28T06:11:26.396Z,11.76
2024-01-28T06:13:30.145Z,11.76
2024-01-28T06:15:31.862Z,11.75
2024-01-28T06:17:45.855Z,11.76
2024-01-28T06:19:47.495Z,11.74
2024-01-28T06:21:51.874Z,11.75
2024-01-28T06:23:53.437Z,11.75
2024-01-28T06:28:46.037Z,11.73
2024-01-28T06:30:53.209Z,11.73
2024-01-28T06:32:57.813Z,11.72
2024-01-28T06:34:59.443Z,11.71
2024-01-28T06:37:00.972Z,11.72
2024-01-28T06:39:02.751Z,11.72
2024-01-28T06:41:04.910Z,11.71
2024-01-28T06:43:07.942Z,11.70
2024-01-28T06:45:12.997Z,11.69
2024-01-28T06:47:14.781Z,11.66
2024-01-28T06:49:20.059Z,11.66
2024-01-28T06:51:21.947Z,11.66
2024-01-28T06:53:23.631Z,11.67
2024-01-28T06:55:27.413Z,11.66
2024-01-28T06:57:32.211Z,11.67
2024-01-28T06:59:33.723Z,11.67
2024-01-28T07:01:37.976Z,11.65
2024-01-28T07:03:39.642Z,11.65
2024-01-28T07:05:43.319Z,11.66
2024-01-28T07:07:46.841Z,11.66
2024-01-28T07:09:50.951Z,11.66
2024-01-28T07:11:54.748Z,11.66
2024-01-28T07:13:57.644Z,11.66
2024-01-28T07:16:01.437Z,11.66
2024-01-28T07:18:03.346Z,11.67
2024-01-28T07:20:08.369Z,11.65
2024-01-28T07:22:12.852Z,11.64
2024-01-28T07:24:14.709Z,11.65
2024-01-28T07:26:16.512Z,11.66
2024-01-28T07:28:24.663Z,11.68
2024-01-28T07:31:03.770Z,11.67
2024-01-28T07:33:22.796Z,11.68
2024-01-28T07:35:24.489Z,11.69
2024-01-28T07:37:30.082Z,11.72
2024-01-28T07:39:31.641Z,11.70
2024-01-28T07:41:35.686Z,11.71
2024-01-28T07:43:37.174Z,11.70
2024-01-28T07:45:43.755Z,11.70
2024-01-28T07:47:51.393Z,11.73
2024-01-28T07:50:05.322Z,11.74
2024-01-28T07:52:16.141Z,11.74
2024-01-28T07:54:25.578Z,11.74
2024-01-28T07:56:29.334Z,11.74
2024-01-28T07:58:31.981Z,11.76
2024-01-28T08:00:33.515Z,11.77
2024-01-28T08:02:35.092Z,11.79
2024-01-28T08:04:43.479Z,11.81
2024-01-28T08:06:45.897Z,11.83
2024-01-28T08:08:47.506Z,11.85
2024-01-28T08:10:51.118Z,11.87
2024-01-28T08:12:55.333Z,11.87
2024-01-28T08:15:04.635Z,11.88
2024-01-28T08:17:10.075Z,11.90
2024-01-28T08:19:14.759Z,11.91
2024-01-28T08:21:21.897Z,11.92
2024-01-28T08:23:29.711Z,11.93
2024-01-28T08:25:37.705Z,11.95
2024-01-28T08:27:39.611Z,11.98
2024-01-28T08:29:43.272Z,12.00
2024-01-28T08:31:45.351Z,12.01
2024-01-28T08:33:47.053Z,12.06
2024-01-28T08:35:51.363Z,12.07
2024-01-28T08:37:56.378Z,12.09
2024-01-28T08:39:58.093Z,12.12
2024-01-28T08:42:00.623Z,12.14
2024-01-28T08:44:06.189Z,12.17
2024-01-28T08:46:07.717Z,12.18
2024-01-28T08:48:13.126Z,12.21
2024-01-28T08:50:15.321Z,12.23
2024-01-28T08:52:16.917Z,12.24
2024-01-28T08:54:20.514Z,12.26
2024-01-28T08:56:24.206Z,12.29
2024-01-28T08:58:25.683Z,12.31
2024-01-28T09:00:28.769Z,12.32
2024-01-28T09:02:32.669Z,12.31
2024-01-28T09:04:34.516Z,12.33
2024-01-28T09:06:38.469Z,12.36
2024-01-28T09:08:42.715Z,12.38
2024-01-28T09:10:48.658Z,12.41
2024-01-28T09:13:03.241Z,12.44
2024-01-28T09:15:08.658Z,12.47
2024-01-28T09:17:21.035Z,12.51
2024-01-28T09:19:38.164Z,12.56
2024-01-28T09:21:50.194Z,12.53
2024-01-28T09:23:58.405Z,12.47
2024-01-28T09:26:11.423Z,12.37
2024-01-28T09:28:15.317Z,12.28
2024-01-28T09:30:19.236Z,12.17
2024-01-28T09:32:26.188Z,12.05
2024-01-28T09:34:30.508Z,11.96
2024-01-28T09:36:32.146Z,11.84
2024-01-28T09:38:45.180Z,11.69
2024-01-28T09:41:08.785Z,11.55
2024-01-28T09:43:30.521Z,11.39
2024-01-28T09:45:32.596Z,11.27
2024-01-28T09:48:09.376Z,11.11
2024-01-28T09:50:24.937Z,11.03
2024-01-28T09:53:10.174Z,10.91
2024-01-28T09:55:02.143Z,10.79
2024-01-28T09:57:06.340Z,10.72
2024-01-28T09:59:09.508Z,10.65
2024-01-28T10:01:11.655Z,10.58
2024-01-28T10:03:13.298Z,10.51
2024-01-28T10:05:16.239Z,10.45
2024-01-28T10:07:18.077Z,10.40
2024-01-28T10:09:20.904Z,10.35
2024-01-28T10:11:22.632Z,10.32
2024-01-28T10:13:24.202Z,10.28
2024-01-28T10:15:29.032Z,10.24
2024-01-28T10:17:30.841Z,10.19
2024-01-28T10:19:35.319Z,10.16
2024-01-28T10:21:38.689Z,10.13
2024-01-28T10:23:40.321Z,10.10
2024-01-28T10:25:42.089Z,10.07
2024-01-28T10:27:50.673Z,10.06
2024-01-28T10:29:54.662Z,10.03
2024-01-28T10:32:05.067Z,10.02
2024-01-28T10:34:11.433Z,10.02
2024-01-28T10:36:13.830Z,10.17
2024-01-28T10:38:23.570Z,10.18
2024-01-28T10:40:37.030Z,10.14
2024-01-28T10:42:44.677Z,10.19
2024-01-28T10:44:58.893Z,10.21
2024-01-28T10:47:09.693Z,10.24
2024-01-28T10:49:26.203Z,10.30
2024-01-28T10:51:29.030Z,10.40
2024-01-28T10:53:35.937Z,10.50
2024-01-28T10:55:40.165Z,10.61
2024-01-28T10:57:42.587Z,10.73
2024-01-28T10:59:44.441Z,10.89
2024-01-28T11:01:47.376Z,11.02
2024-01-28T11:03:53.097Z,11.15
2024-01-28T11:05:57.651Z,11.30
2024-01-28T11:08:02.344Z,11.43
2024-01-28T11:10:06.387Z,11.59
2024-01-28T11:12:12.115Z,11.74
2024-01-28T11:14:15.393Z,11.86
2024-01-28T11:16:24.026Z,11.98
2024-01-28T11:18:31.742Z,12.12
2024-01-28T11:20:35.789Z,12.28
2024-01-28T11:22:55.293Z,12.40
2024-01-28T11:25:00.721Z,12.55
2024-01-28T11:27:08.434Z,12.69
2024-01-28T11:29:13.101Z,12.83
2024-01-28T11:31:36.619Z,12.98
2024-01-28T11:33:40.800Z,13.15
2024-01-28T11:35:46.877Z,13.32
2024-01-28T11:37:59.371Z,13.50
2024-01-28T11:40:25.115Z,13.70
2024-01-28T11:42:26.824Z,13.95
2024-01-28T11:44:41.002Z,14.17
2024-01-28T11:46:46.728Z,14.40
2024-01-28T11:48:48.551Z,14.61
2024-01-28T11:50:50.196Z,14.82
2024-01-28T11:52:52.013Z,15.04
2024-01-28T11:54:54.186Z,15.25
2024-01-28T11:57:03.127Z,15.44
2024-01-28T11:59:08.680Z,15.64
2024-01-28T12:01:28.573Z,15.89
2024-01-28T12:03:42.981Z,16.26
2024-01-28T12:05:44.552Z,16.34
2024-01-28T12:07:47.859Z,16.45
2024-01-28T12:10:16.670Z,16.53
2024-01-28T12:13:01.707Z,16.61
2024-01-28T12:16:02.663Z,16.69
2024-01-28T12:18:29.681Z,16.78
2024-01-28T12:20:37.419Z,16.86
2024-01-28T12:24:30.812Z,16.92
2024-01-28T12:36:03.550Z,17.22
2024-01-28T12:38:47.908Z,17.30
2024-01-28T12:41:08.059Z,17.35
2024-01-28T12:46:36.591Z,17.50
2024-01-28T12:51:08.945Z,17.58
2024-01-28T12:51:17.954Z,17.55
2024-01-28T12:55:41.559Z,17.69
2024-01-28T13:01:39.528Z,17.82
2024-01-28T13:04:12.056Z,17.90
2024-01-28T13:06:38.305Z,17.96
2024-01-28T13:08:58.439Z,18.02
2024-01-28T13:11:08.810Z,18.09
2024-01-28T13:13:17.274Z,18.13
2024-01-28T13:19:25.336Z,18.17
2024-01-28T13:21:56.565Z,18.19
2024-01-28T13:26:57.836Z,18.20
2024-01-28T13:29:08.951Z,18.22
2024-01-28T13:31:20.604Z,18.23
2024-01-28T13:33:32.582Z,18.24
2024-01-28T13:35:39.278Z,18.27
2024-01-28T13:37:43.821Z,18.26
2024-01-28T13:39:45.661Z,18.27
2024-01-28T13:41:47.214Z,18.30
2024-01-28T13:43:50.773Z,18.33
2024-01-28T13:45:54.631Z,18.34
2024-01-28T13:47:56.427Z,18.34
2024-01-28T13:50:01.883Z,18.34
2024-01-28T13:52:25.770Z,18.34
2024-01-28T13:54:27.359Z,18.37
2024-01-28T13:56:37.979Z,18.37
2024-01-28T13:58:57.016Z,18.40
2024-01-28T14:03:42.625Z,18.35
2024-01-28T14:04:24.170Z,18.37
2024-01-28T14:05:57.087Z,18.34
2024-01-28T14:08:01.009Z,18.36
2024-01-28T14:12:38.384Z,18.36
2024-01-28T14:14:52.514Z,18.37
2024-01-28T14:16:54.245Z,18.37
2024-01-28T14:19:38.331Z,18.35
2024-01-28T14:21:49.139Z,18.30
2024-01-28T14:24:15.397Z,18.31
2024-01-28T14:26:28.847Z,18.28
2024-01-28T14:29:13.235Z,18.25
2024-01-28T14:31:31.905Z,18.25
2024-01-28T14:41:30.590Z,18.17
2024-01-28T14:46:39.700Z,18.07
2024-01-28T14:48:48.528Z,18.05
2024-01-28T14:51:07.110Z,18.04
2024-01-28T14:56:41.777Z,17.98
2024-01-28T15:01:34.716Z,17.87
2024-01-28T15:09:00.780Z,17.78
2024-01-28T15:10:49.193Z,17.81
2024-01-28T15:11:02.867Z,17.75
2024-01-28T15:13:04.611Z,17.74
2024-01-28T15:15:08.480Z,17.73
2024-01-28T15:17:12.402Z,17.71
2024-01-28T15:19:14.201Z,17.70
2024-01-28T15:21:17.390Z,17.71
2024-01-28T15:23:22.067Z,17.69
2024-01-28T15:25:26.172Z,17.67
2024-01-28T15:27:27.902Z,17.66
2024-01-28T15:29:32.320Z,17.62
2024-01-28T15:31:36.623Z,17.59
2024-01-28T15:36:21.595Z,17.51
2024-01-28T15:38:23.244Z,17.48
2024-01-28T15:40:24.849Z,17.46
2024-01-28T15:42:26.449Z,17.41
2024-01-28T15:44:30.334Z,17.38
2024-01-28T15:46:34.108Z,17.35
2024-01-28T15:48:36.616Z,17.33
2024-01-28T15:50:38.338Z,17.27
2024-01-28T15:52:41.076Z,17.24
2024-01-28T15:54:49.732Z,17.21
2024-01-28T15:56:51.305Z,17.14
2024-01-28T15:58:55.414Z,17.12
2024-01-28T16:03:41.884Z,17.01
2024-01-28T16:05:43.521Z,16.97
2024-01-28T16:07:46.311Z,16.94
2024-01-28T16:09:55.837Z,16.92
2024-01-28T16:12:33.537Z,16.86
2024-01-28T16:14:51.867Z,16.82
2024-01-28T16:16:56.282Z,16.79
2024-01-28T16:19:00.784Z,16.74
2024-01-28T16:21:02.515Z,16.70
2024-01-28T16:23:08.303Z,16.69
2024-01-28T16:25:10.070Z,16.65
2024-01-28T16:27:12.042Z,16.62
2024-01-28T16:29:15.667Z,16.58
2024-01-28T16:31:19.782Z,16.54
2024-01-28T16:33:21.551Z,16.48
2024-01-28T16:35:26.337Z,16.44
2024-01-28T16:37:27.818Z,16.41
2024-01-28T16:39:38.030Z,16.37
2024-01-28T16:41:42.388Z,16.31
2024-01-28T16:43:46.347Z,16.27
2024-01-28T16:45:50.085Z,16.22
2024-01-28T16:47:53.630Z,16.19
2024-01-28T16:49:56.564Z,16.15
2024-01-28T16:51:58.307Z,16.11
2024-01-28T16:54:01.424Z,16.09
2024-01-28T16:57:18.813Z,16.00
2024-01-28T16:59:24.452Z,15.93
2024-01-28T17:01:43.056Z,15.88
2024-01-28T17:03:53.340Z,15.81
2024-01-28T17:09:08.229Z,15.68
2024-01-28T17:09:37.425Z,15.77
2024-01-28T17:14:42.319Z,15.63
2024-01-28T17:17:52.556Z,15.60
2024-01-28T17:24:13.885Z,15.56
2024-01-28T17:26:42.363Z,15.52
2024-01-28T17:29:34.206Z,15.48
2024-01-28T17:38:00.650Z,15.41
2024-01-28T17:40:15.396Z,15.40
2024-01-28T17:50:00.856Z,15.34
2024-01-28T17:58:42.186Z,15.27
2024-01-28T18:00:57.614Z,15.26
2024-01-28T18:03:04.728Z,15.23
2024-01-28T18:05:08.943Z,15.23
2024-01-28T18:07:12.872Z,15.20
2024-01-28T18:09:21.439Z,15.19
2024-01-28T18:11:25.573Z,15.13
2024-01-28T18:13:29.664Z,15.11
2024-01-28T18:15:33.432Z,15.08
2024-01-28T18:17:35.108Z,15.06
2024-01-28T18:19:36.797Z,15.03
2024-01-28T18:21:38.930Z,15.00
2024-01-28T18:23:45.151Z,14.99
2024-01-28T18:25:48.915Z,14.95
2024-01-28T18:27:50.525Z,14.91
2024-01-28T18:29:56.054Z,14.85
2024-01-28T18:31:59.924Z,14.80
2024-01-28T18:34:01.670Z,14.74
2024-01-28T18:36:07.063Z,14.67
2024-01-28T18:38:09.949Z,14.62
2024-01-28T18:40:14.619Z,14.59
2024-01-28T18:42:16.463Z,14.55
2024-01-28T18:44:30.008Z,14.51
2024-01-28T18:46:34.022Z,14.46
2024-01-28T18:48:36.151Z,14.44
2024-01-28T18:50:43.105Z,14.41
2024-01-28T18:52:44.665Z,14.37
2024-01-28T18:54:46.296Z,14.33
2024-01-28T18:56:54.040Z,14.32
2024-01-28T18:58:55.748Z,14.28
2024-01-28T19:00:57.674Z,14.24
2024-01-28T19:02:59.442Z,14.22
2024-01-28T19:05:02.487Z,14.19
2024-01-28T19:07:04.992Z,14.18
2024-01-28T19:09:09.350Z,14.17
2024-01-28T19:11:15.195Z,14.15
2024-01-28T19:13:31.013Z,14.13
2024-01-28T19:15:34.914Z,14.10
2024-01-28T19:17:36.553Z,14.08
2024-01-28T19:19:40.705Z,14.06
2024-01-28T19:21:58.650Z,14.03
2024-01-28T19:24:02.857Z,14.01
2024-01-28T19:26:04.876Z,14.00
2024-01-28T19:28:14.899Z,13.99
2024-01-28T19:30:24.194Z,13.96
2024-01-28T19:32:28.044Z,13.92
2024-01-28T19:34:31.794Z,13.88
2024-01-28T19:36:43.103Z,13.81
2024-01-28T19:38:47.372Z,13.75
2024-01-28T19:40:52.780Z,13.71
2024-01-28T19:42:57.063Z,13.68
2024-01-28T19:44:59.641Z,13.66
2024-01-28T19:47:01.122Z,13.62
2024-01-28T19:49:07.445Z,13.59
2024-01-28T19:51:09.668Z,13.57
2024-01-28T19:53:11.226Z,13.55
2024-01-28T19:55:12.713Z,13.57
2024-01-28T19:57:17.176Z,13.54
2024-01-28T19:59:22.573Z,13.46
2024-01-28T20:01:24.541Z,13.34
2024-01-28T20:03:30.376Z,13.20
2024-01-28T20:05:34.866Z,13.07
2024-01-28T20:07:37.022Z,12.88
2024-01-28T20:10:03.513Z,12.73
2024-01-28T20:12:28.064Z,12.48
2024-01-28T20:14:29.885Z,12.37
2024-01-28T20:16:37.205Z,12.28
2024-01-28T20:18:52.346Z,12.22
2024-01-28T20:20:54.469Z,12.18
2024-01-28T20:22:58.999Z,12.16
2024-01-28T20:25:05.110Z,12.13
2024-01-28T20:27:11.470Z,12.13
2024-01-28T20:29:13.150Z,12.12
2024-01-28T20:31:18.598Z,12.11
2024-01-28T20:33:20.458Z,12.12
2024-01-28T20:35:22.055Z,12.12
2024-01-28T20:37:26.500Z,12.14
2024-01-28T20:39:33.973Z,12.15
2024-01-28T20:41:44.814Z,12.19
2024-01-28T20:43:55.318Z,12.21
2024-01-28T20:45:58.016Z,12.23
2024-01-28T20:47:59.630Z,12.26
2024-01-28T20:50:02.245Z,12.28
2024-01-28T20:52:07.289Z,12.31
2024-01-28T20:54:11.037Z,12.34
2024-01-28T20:56:25.796Z,12.36
2024-01-28T20:58:30.715Z,12.38
2024-01-28T21:00:44.490Z,12.40
2024-01-28T21:02:46.300Z,12.41
2024-01-28T21:04:50.198Z,12.40
2024-01-28T21:06:56.545Z,12.43
2024-01-28T21:08:58.744Z,12.43
2024-01-28T21:11:31.002Z,12.42
2024-01-28T21:13:34.709Z,12.38
2024-01-28T21:18:07.438Z,12.34
2024-01-28T21:20:09.689Z,12.34
2024-01-28T21:22:20.586Z,12.34
2024-01-28T21:24:32.271Z,12.31
2024-01-28T21:27:01.736Z,12.31
2024-01-28T21:29:45.489Z,12.29
2024-01-28T21:32:00.410Z,12.30
2024-01-28T21:34:14.044Z,12.30
2024-01-28T21:36:33.437Z,12.31
2024-01-28T21:38:37.613Z,12.30
2024-01-28T21:40:39.212Z,12.31
2024-01-28T21:42:43.144Z,12.30
2024-01-28T21:44:48.368Z,12.30
2024-01-28T21:46:54.814Z,12.29
2024-01-28T21:48:56.458Z,12.29
2024-01-28T21:51:01.366Z,12.29
2024-01-28T21:53:22.831Z,12.27
2024-01-28T21:55:31.938Z,12.29
2024-01-28T21:57:36.541Z,12.28
2024-01-28T21:59:39.973Z,12.28
2024-01-28T22:01:42.801Z,12.28
2024-01-28T22:03:45.504Z,12.25
2024-01-28T22:05:47.271Z,12.24
2024-01-28T22:07:52.025Z,12.22
2024-01-28T22:09:53.814Z,12.22
2024-01-28T22:11:58.099Z,12.23
2024-01-28T22:13:59.722Z,12.23
2024-01-28T22:16:01.390Z,12.22
2024-01-28T22:18:03.093Z,12.22
2024-01-28T22:20:05.156Z,12.19
2024-01-28T22:22:14.117Z,12.20
2024-01-28T22:24:22.167Z,12.16
2024-01-28T22:26:27.460Z,12.16
2024-01-28T22:28:32.454Z,12.11
2024-01-28T22:30:37.226Z,12.11
2024-01-28T22:32:39.500Z,12.12
2024-01-28T22:34:44.214Z,12.12
2024-01-28T22:36:47.324Z,12.12
2024-01-28T22:38:48.861Z,12.12
2024-01-28T22:40:50.539Z,12.12
2024-01-28T22:47:01.062Z,12.07
2024-01-28T22:49:02.768Z,12.05
2024-01-28T22:51:07.240Z,12.07
2024-01-28T22:53:08.736Z,12.08
2024-01-28T22:55:10.276Z,12.09
2024-01-28T22:57:15.194Z,12.10
2024-01-28T22:59:17.272Z,12.09
2024-01-28T23:01:20.752Z,12.09
2024-01-28T23:03:22.530Z,12.10
2024-01-28T23:05:24.580Z,12.12
2024-01-28T23:07:26.084Z,12.12
2024-01-28T23:09:27.694Z,12.13
2024-01-28T23:11:48.068Z,12.13
2024-01-28T23:14:02.635Z,12.10
2024-01-28T23:16:07.193Z,12.10
2024-01-28T23:18:09.131Z,12.11
2024-01-28T23:20:11.065Z,12.10
2024-01-28T23:22:12.874Z,12.08
2024-01-28T23:24:16.458Z,12.07
2024-01-28T23:26:20.259Z,12.08
2024-01-28T23:28:24.061Z,12.08
2024-01-28T23:30:30.514Z,12.07
2024-01-28T23:32:32.171Z,12.06
2024-01-28T23:34:33.986Z,12.06
2024-01-28T23:36:35.806Z,12.04
2024-01-28T23:38:39.181Z,12.04
2024-01-28T23:40:43.177Z,12.04
2024-01-28T23:42:44.729Z,12.04
2024-01-28T23:44:48.738Z,12.03
2024-01-28T23:46:50.986Z,12.03
2024-01-28T23:48:54.942Z,12.02
2024-01-28T23:50:58.120Z,12.03
2024-01-28T23:52:59.599Z,12.02
2024-01-28T23:55:04.568Z,12.02
2024-01-28T23:57:09.047Z,12.02
2024-01-28T23:59:10.522Z,12.03
